createdAt,value
2023-03-03T00:02:11.875Z,6.70
2023-03-03T00:04:40.323Z,6.68
2023-03-03T00:07:08.228Z,10.52
2023-03-03T00:09:35.795Z,7.53
2023-03-03T00:12:21.168Z,6.68
2023-03-03T00:14:48.743Z,7.38
2023-03-03T00:17:23.936Z,6.00
2023-03-03T00:19:52.218Z,6.15
2023-03-03T00:22:40.916Z,6.75
2023-03-03T00:25:34.613Z,6.45
2023-03-03T00:28:41.588Z,9.43
2023-03-03T00:31:17.912Z,8.15
2023-03-03T00:33:56.077Z,7.00
2023-03-03T00:36:39.767Z,4.70
2023-03-03T00:39:32.353Z,6.13
2023-03-03T00:42:00.878Z,5.47
2023-03-03T00:44:44.618Z,7.85
2023-03-03T00:47:37.138Z,6.55
2023-03-03T00:50:07.687Z,5.00
2023-03-03T00:52:41.470Z,6.70
2023-03-03T00:55:09.351Z,7.78
2023-03-03T00:57:37.013Z,7.18
2023-03-03T01:00:08.369Z,8.07
2023-03-03T01:02:36.095Z,7.93
2023-03-03T01:05:03.726Z,6.40
2023-03-03T01:07:31.383Z,6.10
2023-03-03T01:09:59.027Z,7.60
2023-03-03T01:12:27.587Z,6.90
2023-03-03T01:14:56.875Z,5.40
2023-03-03T01:17:24.760Z,6.07
2023-03-03T01:19:53.018Z,8.38
2023-03-03T01:22:20.619Z,6.65
2023-03-03T01:24:48.132Z,7.35
2023-03-03T01:27:15.630Z,8.35
2023-03-03T01:29:43.288Z,7.57
2023-03-03T01:32:11.712Z,6.78
2023-03-03T01:34:39.200Z,9.77
2023-03-03T01:37:06.912Z,5.63
2023-03-03T01:39:36.439Z,8.05
2023-03-03T01:42:04.205Z,8.23
2023-03-03T01:44:31.839Z,7.75
2023-03-03T01:47:20.212Z,7.80
2023-03-03T01:50:10.524Z,7.93
2023-03-03T01:52:44.911Z,7.60
2023-03-03T01:55:26.209Z,7.90
2023-03-03T01:58:03.332Z,10.20
2023-03-03T02:00:32.186Z,7.03
2023-03-03T02:02:59.882Z,10.30
2023-03-03T02:05:30.851Z,6.07
2023-03-03T02:07:58.548Z,8.88
2023-03-03T02:10:27.136Z,8.60
2023-03-03T02:12:57.161Z,12.40
2023-03-03T02:15:40.829Z,7.85
2023-03-03T02:18:17.312Z,11.52
2023-03-03T02:21:09.483Z,6.93
2023-03-03T02:23:52.941Z,9.15
2023-03-03T02:26:24.808Z,10.35
2023-03-03T02:28:57.527Z,6.25
2023-03-03T02:31:28.038Z,8.48
2023-03-03T02:33:56.420Z,7.85
2023-03-03T02:36:30.363Z,6.78
2023-03-03T02:39:25.033Z,8.40
2023-03-03T02:42:15.621Z,5.40
2023-03-03T02:44:48.884Z,9.20
2023-03-03T02:47:16.771Z,10.98
2023-03-03T02:49:45.464Z,6.07
2023-03-03T02:52:15.142Z,6.47
2023-03-03T02:54:46.277Z,7.00
2023-03-03T02:57:14.033Z,5.68
2023-03-03T02:59:41.627Z,8.23
2023-03-03T03:02:12.933Z,8.75
2023-03-03T03:04:40.802Z,5.65
2023-03-03T03:07:10.452Z,7.47
2023-03-03T03:09:38.893Z,8.05
2023-03-03T03:12:06.617Z,6.20
2023-03-03T03:14:35.981Z,6.43
2023-03-03T03:17:05.743Z,8.25
2023-03-03T03:19:33.411Z,6.47
2023-03-03T03:22:03.011Z,7.15
2023-03-03T03:24:33.164Z,6.50
2023-03-03T03:27:04.901Z,7.05
2023-03-03T03:29:33.223Z,6.65
2023-03-03T03:32:01.129Z,7.07
2023-03-03T03:34:28.704Z,7.45
2023-03-03T03:36:57.090Z,6.63
2023-03-03T03:39:26.817Z,8.57
2023-03-03T03:41:55.022Z,7.07
2023-03-03T03:44:24.324Z,8.40
2023-03-03T03:46:52.763Z,6.90
2023-03-03T03:49:21.197Z,8.10
2023-03-03T03:51:50.872Z,6.63
2023-03-03T03:54:21.231Z,8.77
2023-03-03T03:56:49.747Z,8.20
2023-03-03T03:59:17.487Z,8.93
2023-03-03T04:01:45.272Z,7.55
2023-03-03T04:04:12.795Z,6.95
2023-03-03T04:06:41.174Z,6.70
2023-03-03T04:09:08.999Z,8.30
2023-03-03T04:11:36.482Z,7.47
2023-03-03T04:14:06.412Z,5.45
2023-03-03T04:16:35.679Z,8.10
2023-03-03T04:19:03.895Z,6.63
2023-03-03T04:21:33.921Z,6.20
2023-03-03T04:24:03.024Z,7.43
2023-03-03T04:26:32.026Z,7.13
2023-03-03T04:29:02.062Z,5.28
2023-03-03T04:31:30.148Z,7.18
2023-03-03T04:33:58.103Z,8.27
2023-03-03T04:36:26.562Z,6.60
2023-03-03T04:38:54.697Z,7.32
2023-03-03T04:41:23.261Z,6.38
2023-03-03T04:43:50.985Z,6.00
2023-03-03T04:46:18.667Z,5.93
2023-03-03T04:48:46.331Z,7.20
2023-03-03T04:51:16.980Z,5.53
2023-03-03T04:53:45.900Z,6.50
2023-03-03T04:56:14.571Z,6.13
2023-03-03T04:58:42.149Z,6.90
2023-03-03T05:01:14.087Z,6.68
2023-03-03T05:03:42.404Z,7.97
2023-03-03T05:06:10.045Z,6.60
2023-03-03T05:08:37.817Z,6.55
2023-03-03T05:11:05.692Z,6.50
2023-03-03T05:13:33.428Z,8.60
2023-03-03T05:16:01.425Z,6.90
2023-03-03T05:18:29.405Z,5.88
2023-03-03T05:20:57.089Z,5.47
2023-03-03T05:23:25.191Z,8.55
2023-03-03T05:25:52.857Z,7.50
2023-03-03T05:28:20.542Z,6.85
2023-03-03T05:30:48.146Z,8.63
2023-03-03T05:33:17.440Z,6.82
2023-03-03T05:35:45.436Z,8.15
2023-03-03T05:38:13.196Z,7.72
2023-03-03T05:40:40.953Z,7.00
2023-03-03T05:43:08.620Z,6.35
2023-03-03T05:45:36.294Z,10.82
2023-03-03T05:48:05.180Z,8.55
2023-03-03T05:50:33.205Z,6.50
2023-03-03T05:53:01.491Z,7.97
2023-03-03T05:55:29.081Z,8.65
2023-03-03T05:57:56.795Z,8.27
2023-03-03T06:00:24.534Z,7.35
2023-03-03T06:02:52.301Z,8.48
2023-03-03T06:05:20.022Z,9.07
2023-03-03T06:07:47.874Z,7.85
2023-03-03T06:10:15.439Z,6.80
2023-03-03T06:12:47.649Z,11.10
2023-03-03T06:15:15.315Z,7.82
2023-03-03T06:17:43.042Z,8.48
2023-03-03T06:20:11.432Z,7.95
2023-03-03T06:22:39.035Z,8.02
2023-03-03T06:25:07.088Z,7.05
2023-03-03T06:27:34.728Z,8.43
2023-03-03T06:30:02.472Z,6.65
2023-03-03T06:32:31.603Z,7.82
2023-03-03T06:34:59.153Z,8.68
2023-03-03T06:37:26.837Z,9.65
2023-03-03T06:39:54.357Z,7.65
2023-03-03T06:42:21.914Z,6.60
2023-03-03T06:44:49.460Z,7.63
2023-03-03T06:47:17.153Z,7.43
2023-03-03T06:49:44.896Z,6.10
2023-03-03T06:52:15.048Z,10.07
2023-03-03T06:54:42.810Z,8.68
2023-03-03T06:57:37.300Z,9.80
2023-03-03T07:00:20.517Z,7.05
2023-03-03T07:02:54.271Z,9.55
2023-03-03T07:05:24.768Z,7.93
2023-03-03T07:07:52.344Z,7.00
2023-03-03T07:10:24.957Z,10.60
2023-03-03T07:12:53.290Z,9.23
2023-03-03T07:15:25.004Z,7.28
2023-03-03T07:18:00.535Z,8.73
2023-03-03T07:20:36.867Z,7.88
2023-03-03T07:23:23.762Z,7.28
2023-03-03T07:25:51.859Z,8.80
2023-03-03T07:28:27.382Z,7.60
2023-03-03T07:30:57.623Z,7.50
2023-03-03T07:33:29.491Z,7.20
2023-03-03T07:36:00.136Z,8.02
2023-03-03T07:38:43.060Z,8.65
2023-03-03T07:41:23.878Z,8.93
2023-03-03T07:44:00.490Z,6.90
2023-03-03T07:46:48.475Z,6.80
2023-03-03T07:49:24.844Z,8.20
2023-03-03T07:51:58.100Z,9.02
2023-03-03T07:54:32.231Z,9.15
2023-03-03T07:57:15.456Z,8.15
2023-03-03T07:59:49.138Z,8.18
2023-03-03T08:04:58.397Z,7.07
2023-03-03T08:07:26.460Z,7.85
2023-03-03T08:10:01.588Z,8.60
2023-03-03T08:12:43.422Z,6.22
2023-03-03T08:15:23.619Z,6.53
2023-03-03T08:17:53.248Z,6.85
2023-03-03T08:20:30.004Z,6.65
2023-03-03T08:22:57.783Z,7.00
2023-03-03T08:25:25.407Z,7.10
2023-03-03T08:27:53.302Z,6.03
2023-03-03T08:30:20.837Z,5.35
2023-03-03T08:32:48.527Z,6.22
2023-03-03T08:35:16.269Z,7.45
2023-03-03T08:37:43.792Z,9.00
2023-03-03T08:40:11.986Z,8.90
2023-03-03T08:42:39.765Z,8.13
2023-03-03T08:45:07.688Z,7.40
2023-03-03T08:47:35.737Z,8.60
2023-03-03T08:50:04.509Z,8.68
2023-03-03T08:52:32.966Z,6.72
2023-03-03T08:55:00.577Z,8.35
2023-03-03T08:57:28.287Z,7.53
2023-03-03T08:59:55.814Z,7.57
2023-03-03T09:02:23.391Z,6.70
2023-03-03T09:04:50.964Z,7.57
2023-03-03T09:07:18.601Z,5.65
2023-03-03T09:09:46.367Z,7.32
2023-03-03T09:12:18.623Z,7.05
2023-03-03T09:14:47.554Z,5.75
2023-03-03T09:17:23.555Z,7.03
2023-03-03T09:19:51.977Z,6.55
2023-03-03T09:22:26.076Z,12.07
2023-03-03T09:24:59.554Z,6.85
2023-03-03T09:27:27.041Z,6.63
2023-03-03T09:29:54.756Z,6.32
2023-03-03T09:32:34.235Z,7.28
2023-03-03T09:35:27.354Z,5.07
2023-03-03T09:37:55.064Z,6.45
2023-03-03T09:40:54.077Z,8.60
2023-03-03T09:43:37.814Z,6.32
2023-03-03T09:46:43.595Z,8.20
2023-03-03T09:49:34.706Z,8.00
2023-03-03T09:52:27.019Z,7.05
2023-03-03T09:55:09.268Z,6.68
2023-03-03T09:58:08.079Z,8.23
2023-03-03T10:00:40.451Z,7.35
2023-03-03T10:03:21.333Z,7.95
2023-03-03T10:06:04.111Z,9.43
2023-03-03T10:08:50.629Z,8.82
2023-03-03T10:11:40.284Z,7.53
2023-03-03T10:14:10.841Z,7.88
2023-03-03T10:16:53.274Z,8.63
2023-03-03T10:19:34.454Z,5.78
2023-03-03T10:22:14.466Z,7.50
2023-03-03T10:25:01.316Z,6.50
2023-03-03T10:27:39.455Z,5.43
2023-03-03T10:31:05.473Z,8.32
2023-03-03T10:33:49.041Z,8.63
2023-03-03T10:36:52.109Z,5.47
2023-03-03T10:39:28.133Z,6.72
2023-03-03T10:42:22.698Z,6.57
2023-03-03T10:44:52.892Z,6.72
2023-03-03T10:47:48.059Z,9.52
2023-03-03T10:50:16.514Z,9.38
2023-03-03T10:52:53.120Z,7.78
2023-03-03T10:55:55.927Z,6.32
2023-03-03T10:58:35.435Z,8.32
2023-03-03T11:01:12.033Z,9.20
2023-03-03T11:04:17.860Z,6.53
2023-03-03T11:06:51.481Z,5.57
2023-03-03T11:09:34.165Z,6.70
2023-03-03T11:12:22.357Z,7.93
2023-03-03T11:15:23.487Z,6.00
2023-03-03T11:18:19.010Z,6.95
2023-03-03T11:20:49.551Z,8.10
2023-03-03T11:23:45.741Z,9.18
2023-03-03T11:26:31.850Z,8.43
2023-03-03T11:29:29.002Z,8.10
2023-03-03T11:32:16.451Z,8.73
2023-03-03T11:35:00.705Z,7.25
2023-03-03T11:37:53.316Z,8.82
2023-03-03T11:40:26.760Z,9.73
2023-03-03T11:43:37.064Z,8.57
2023-03-03T11:46:18.854Z,7.60
2023-03-03T11:48:49.643Z,13.00
2023-03-03T11:51:43.481Z,6.90
2023-03-03T11:54:33.113Z,8.18
2023-03-03T11:57:29.932Z,8.80
2023-03-03T12:00:28.970Z,8.40
2023-03-03T12:03:18.401Z,10.00
2023-03-03T12:05:58.227Z,9.02
2023-03-03T12:08:56.420Z,7.07
2023-03-03T12:11:38.279Z,9.85
2023-03-03T12:14:38.010Z,8.82
2023-03-03T12:17:28.840Z,7.43
2023-03-03T12:20:13.209Z,7.20
2023-03-03T12:23:06.377Z,7.53
2023-03-03T12:25:48.004Z,7.10
2023-03-03T12:28:20.845Z,8.15
2023-03-03T12:31:11.670Z,7.27
2023-03-03T12:34:10.184Z,7.72
2023-03-03T12:36:56.220Z,8.52
2023-03-03T12:39:35.100Z,7.45
2023-03-03T12:42:19.278Z,7.40
2023-03-03T12:45:08.356Z,7.65
2023-03-03T12:47:36.622Z,7.68
2023-03-03T12:50:31.623Z,8.48
2023-03-03T12:53:34.228Z,7.30
2023-03-03T12:58:48.574Z,7.65
2023-03-03T13:01:54.154Z,7.38
2023-03-03T13:04:40.402Z,6.82
2023-03-03T13:07:31.973Z,7.70
2023-03-03T13:10:18.368Z,6.30
2023-03-03T13:12:56.727Z,8.90
2023-03-03T13:15:32.288Z,6.72
2023-03-03T13:18:22.079Z,8.57
2023-03-03T13:21:21.283Z,8.10
2023-03-03T13:24:13.150Z,7.45
2023-03-03T13:26:58.997Z,8.25
2023-03-03T13:30:24.529Z,7.30
2023-03-03T13:33:00.254Z,6.88
2023-03-03T13:35:47.794Z,8.15
2023-03-03T13:38:22.817Z,9.75
2023-03-03T13:41:10.713Z,8.05
2023-03-03T13:44:25.901Z,8.93
2023-03-03T13:47:13.862Z,7.30
2023-03-03T13:50:02.817Z,9.13
2023-03-03T13:52:35.090Z,9.00
2023-03-03T13:55:30.089Z,7.97
2023-03-03T13:58:04.122Z,8.30
2023-03-03T14:00:38.612Z,10.13
2023-03-03T14:03:27.509Z,7.32
2023-03-03T14:06:12.006Z,9.15
2023-03-03T14:09:15.691Z,9.13
2023-03-03T14:12:01.055Z,8.10
2023-03-03T14:14:34.552Z,8.75
2023-03-03T14:17:13.231Z,15.00
2023-03-03T14:19:47.374Z,7.35
2023-03-03T14:22:35.289Z,7.93
2023-03-03T14:25:17.299Z,7.43
2023-03-03T14:27:47.870Z,6.32
2023-03-03T14:30:39.306Z,10.65
2023-03-03T14:33:10.083Z,7.60
2023-03-03T14:35:53.049Z,9.38
2023-03-03T14:38:24.619Z,9.07
2023-03-03T14:41:13.308Z,6.70
2023-03-03T14:43:43.982Z,10.00
2023-03-03T14:46:36.719Z,7.43
2023-03-03T14:49:16.883Z,8.68
2023-03-03T14:51:48.011Z,7.40
2023-03-03T14:54:22.990Z,8.32
2023-03-03T14:57:12.505Z,8.75
2023-03-03T14:59:41.276Z,7.90
2023-03-03T15:02:17.651Z,8.00
2023-03-03T15:04:46.686Z,6.95
2023-03-03T15:07:39.210Z,8.77
2023-03-03T15:10:08.298Z,8.57
2023-03-03T15:12:41.495Z,7.90
2023-03-03T15:15:21.985Z,9.45
2023-03-03T15:18:08.423Z,9.25
2023-03-03T15:21:08.277Z,9.18
2023-03-03T15:23:54.647Z,6.22
2023-03-03T15:26:45.547Z,7.03
2023-03-03T15:29:34.740Z,6.65
2023-03-03T15:32:30.884Z,10.75
2023-03-03T15:35:08.300Z,13.15
2023-03-03T15:37:42.317Z,8.77
2023-03-03T15:40:30.828Z,7.63
2023-03-03T15:43:14.808Z,6.60
2023-03-03T15:46:06.979Z,9.13
2023-03-03T15:49:22.291Z,8.93
2023-03-03T15:52:22.066Z,7.00
2023-03-03T15:55:26.886Z,10.02
2023-03-03T15:58:22.150Z,11.80
2023-03-03T16:00:49.954Z,8.73
2023-03-03T16:03:22.332Z,9.82
2023-03-03T16:06:04.102Z,11.30
2023-03-03T16:08:49.576Z,8.23
2023-03-03T16:11:42.209Z,9.98
2023-03-03T16:14:47.245Z,9.23
2023-03-03T16:17:44.634Z,9.85
2023-03-03T16:20:30.002Z,8.50
2023-03-03T16:23:16.275Z,10.43
2023-03-03T16:26:05.312Z,8.30
2023-03-03T16:29:06.866Z,10.70
2023-03-03T16:31:42.717Z,7.17
2023-03-03T16:34:26.917Z,9.27
2023-03-03T16:37:04.135Z,9.05
2023-03-03T16:39:38.079Z,10.73
2023-03-03T16:42:52.334Z,7.97
2023-03-03T16:45:25.220Z,8.43
2023-03-03T16:48:02.032Z,9.32
2023-03-03T16:50:51.485Z,9.88
2023-03-03T16:53:44.375Z,11.00
2023-03-03T16:56:48.071Z,8.18
2023-03-03T16:59:21.466Z,9.45
2023-03-03T17:02:01.992Z,9.10
2023-03-03T17:05:03.972Z,8.77
2023-03-03T17:07:46.783Z,9.82
2023-03-03T17:10:26.296Z,9.82
2023-03-03T17:13:12.065Z,9.05
2023-03-03T17:15:48.608Z,8.93
2023-03-03T17:18:53.687Z,11.75
2023-03-03T17:21:39.443Z,13.20
2023-03-03T17:24:34.420Z,11.05
2023-03-03T17:27:13.142Z,11.93
2023-03-03T17:30:15.098Z,11.50
2023-03-03T17:33:20.699Z,7.85
2023-03-03T17:36:00.421Z,12.45
2023-03-03T17:39:02.454Z,8.93
2023-03-03T17:41:40.223Z,9.57
2023-03-03T17:44:24.233Z,10.20
2023-03-03T17:47:05.354Z,12.40
2023-03-03T17:49:58.534Z,10.20
2023-03-03T17:52:47.270Z,12.15
2023-03-03T17:55:47.040Z,11.55
2023-03-03T17:58:45.960Z,10.90
2023-03-03T18:01:34.540Z,11.23
2023-03-03T18:04:43.025Z,9.73
2023-03-03T18:07:46.368Z,8.90
2023-03-03T18:10:46.921Z,8.52
2023-03-03T18:13:45.311Z,11.88
2023-03-03T18:16:25.958Z,9.30
2023-03-03T18:19:12.025Z,9.55
2023-03-03T18:21:49.671Z,8.25
2023-03-03T18:24:38.854Z,14.20
2023-03-03T18:27:25.193Z,15.18
2023-03-03T18:30:11.099Z,13.00
2023-03-03T18:33:02.137Z,10.45
2023-03-03T18:35:45.276Z,10.05
2023-03-03T18:38:16.025Z,8.98
2023-03-03T18:41:11.495Z,12.55
2023-03-03T18:43:49.044Z,10.07
2023-03-03T18:46:25.669Z,7.70
2023-03-03T18:49:55.942Z,7.72
2023-03-03T18:53:15.817Z,10.17
2023-03-03T18:55:54.531Z,11.95
2023-03-03T18:58:30.327Z,10.25
2023-03-03T19:01:16.164Z,10.23
2023-03-03T19:04:18.791Z,9.15
2023-03-03T19:09:57.514Z,7.78
2023-03-03T19:12:54.213Z,10.02
2023-03-03T19:15:35.066Z,8.23
2023-03-03T19:18:28.235Z,10.00
2023-03-03T19:20:59.836Z,10.80
2023-03-03T19:23:52.874Z,9.05
2023-03-03T19:29:01.922Z,9.98
2023-03-03T19:31:48.096Z,9.52
2023-03-03T19:34:21.369Z,9.48
2023-03-03T19:37:25.960Z,10.23
2023-03-03T19:40:13.874Z,10.70
2023-03-03T19:43:19.356Z,12.02
2023-03-03T19:46:24.574Z,10.93
2023-03-03T19:49:15.346Z,13.05
2023-03-03T19:51:58.629Z,16.00
2023-03-03T19:55:03.584Z,14.98
2023-03-03T19:57:39.815Z,13.90
2023-03-03T20:00:35.465Z,14.98
2023-03-03T20:03:05.914Z,16.50
2023-03-03T20:05:36.576Z,14.93
2023-03-03T20:08:11.727Z,15.43
2023-03-03T20:10:50.182Z,19.40
2023-03-03T20:13:37.716Z,14.82
2023-03-03T20:16:15.256Z,18.30
2023-03-03T20:19:03.298Z,19.90
2023-03-03T20:22:18.364Z,20.05
2023-03-03T20:25:12.284Z,18.95
2023-03-03T20:28:04.439Z,17.02
2023-03-03T20:31:03.094Z,15.57
2023-03-03T20:33:59.824Z,12.38
2023-03-03T20:36:59.416Z,19.48
2023-03-03T20:39:44.957Z,16.88
2023-03-03T20:42:18.332Z,18.50
2023-03-03T20:44:51.908Z,17.42
2023-03-03T20:47:31.399Z,13.20
2023-03-03T20:50:02.168Z,16.83
2023-03-03T20:52:40.020Z,17.58
2023-03-03T20:55:24.436Z,17.05
2023-03-03T20:58:07.905Z,16.48
2023-03-03T21:00:48.042Z,18.40
2023-03-03T21:03:21.550Z,19.95
2023-03-03T21:06:00.477Z,16.33
2023-03-03T21:08:55.443Z,19.20
2023-03-03T21:11:34.406Z,19.73
2023-03-03T21:14:21.782Z,22.38
2023-03-03T21:16:51.277Z,23.63
2023-03-03T21:19:33.600Z,17.25
2023-03-03T21:22:02.576Z,21.52
2023-03-03T21:24:57.175Z,17.13
2023-03-03T21:27:29.284Z,17.08
2023-03-03T21:30:08.590Z,13.30
2023-03-03T21:32:42.331Z,13.93
2023-03-03T21:37:44.962Z,12.02
2023-03-03T21:40:14.646Z,12.18
2023-03-03T21:42:44.573Z,17.33
2023-03-03T21:45:15.737Z,13.30
2023-03-03T21:47:43.390Z,15.18
2023-03-03T21:50:11.979Z,14.93
2023-03-03T21:52:39.552Z,13.93
2023-03-03T21:55:08.040Z,17.42
2023-03-03T21:57:35.703Z,14.07
2023-03-03T22:00:08.204Z,16.45
2023-03-03T22:02:36.969Z,16.13
2023-03-03T22:05:07.738Z,17.58
2023-03-03T22:07:35.459Z,14.95
2023-03-03T22:10:03.517Z,14.90
2023-03-03T22:12:31.293Z,18.15
2023-03-03T22:14:58.820Z,16.70
2023-03-03T22:17:26.410Z,13.80
2023-03-03T22:19:55.972Z,18.38
2023-03-03T22:22:24.739Z,16.08
2023-03-03T22:24:52.265Z,16.25
2023-03-03T22:27:20.024Z,18.15
2023-03-03T22:29:47.558Z,18.83
2023-03-03T22:32:15.177Z,19.95
2023-03-03T22:34:42.845Z,20.20
2023-03-03T22:37:10.439Z,17.23
2023-03-03T22:39:38.047Z,14.95
2023-03-03T22:42:05.643Z,17.85
2023-03-03T22:44:33.333Z,14.23
2023-03-03T22:47:01.010Z,14.98
2023-03-03T22:49:29.287Z,15.55
2023-03-03T22:51:59.034Z,15.43
2023-03-03T22:54:26.620Z,16.42
2023-03-03T22:56:54.254Z,14.20
2023-03-03T22:59:21.812Z,17.60
2023-03-03T23:01:49.385Z,18.75
2023-03-03T23:04:16.971Z,17.20
2023-03-03T23:06:45.396Z,15.13
2023-03-03T23:09:12.951Z,14.88
2023-03-03T23:11:40.620Z,15.25
2023-03-03T23:14:08.131Z,18.25
2023-03-03T23:16:35.658Z,18.45
2023-03-03T23:19:03.265Z,16.92
2023-03-03T23:21:30.768Z,15.13
2023-03-03T23:23:58.395Z,13.23
2023-03-03T23:26:25.968Z,16.13
2023-03-03T23:28:53.481Z,16.45
2023-03-03T23:31:21.202Z,16.20
2023-03-03T23:33:48.766Z,17.35
2023-03-03T23:36:16.290Z,15.50
2023-03-03T23:38:43.865Z,17.45
2023-03-03T23:41:11.319Z,17.55
2023-03-03T23:43:38.817Z,19.35
2023-03-03T23:46:06.284Z,17.85
2023-03-03T23:48:33.954Z,13.32
2023-03-03T23:51:02.890Z,16.88
2023-03-03T23:53:30.529Z,19.63
2023-03-03T23:55:58.147Z,16.48
2023-03-03T23:58:25.792Z,15.27
